createdAt,value
2018-01-18T00:00:53.677Z,19.05
2018-01-18T00:01:56.144Z,19.04
2018-01-18T00:02:58.608Z,19.03
2018-01-18T00:04:01.076Z,19.03
2018-01-18T00:05:03.575Z,19.01
2018-01-18T00:06:06.030Z,19.00
2018-01-18T00:07:08.500Z,18.98
2018-01-18T00:08:11.312Z,18.98
2018-01-18T00:09:13.762Z,18.97
2018-01-18T00:10:16.238Z,18.96
2018-01-18T00:11:18.701Z,18.95
2018-01-18T00:12:21.153Z,18.94
2018-01-18T00:13:23.623Z,18.93
2018-01-18T00:14:26.083Z,18.93
2018-01-18T00:15:28.574Z,18.92
2018-01-18T00:16:31.035Z,18.91
2018-01-18T00:17:33.508Z,18.90
2018-01-18T00:18:35.961Z,18.90
2018-01-18T00:19:38.428Z,18.89
2018-01-18T00:20:40.902Z,18.88
2018-01-18T00:21:43.368Z,18.87
2018-01-18T00:22:45.832Z,18.86
2018-01-18T00:23:48.286Z,18.86
2018-01-18T00:24:50.747Z,18.85
2018-01-18T00:25:53.234Z,18.84
2018-01-18T00:26:55.685Z,18.83
2018-01-18T00:27:58.148Z,18.83
2018-01-18T00:29:00.597Z,18.82
2018-01-18T00:30:03.049Z,18.81
2018-01-18T00:31:05.590Z,18.80
2018-01-18T00:32:08.056Z,18.80
2018-01-18T00:33:10.506Z,18.78
2018-01-18T00:34:12.962Z,18.77
2018-01-18T00:35:15.417Z,18.76
2018-01-18T00:36:17.894Z,18.75
2018-01-18T00:37:20.368Z,18.75
2018-01-18T00:38:22.844Z,18.74
2018-01-18T00:39:25.298Z,18.73
2018-01-18T00:40:27.760Z,18.73
2018-01-18T00:41:30.244Z,18.72
2018-01-18T00:42:32.699Z,18.71
2018-01-18T00:43:35.164Z,18.70
2018-01-18T00:44:37.628Z,18.69
2018-01-18T00:45:40.160Z,18.69
2018-01-18T00:46:42.648Z,18.68
2018-01-18T00:47:45.102Z,18.68
2018-01-18T00:48:47.554Z,18.68
2018-01-18T00:49:50.020Z,18.68
2018-01-18T00:50:52.488Z,18.69
2018-01-18T00:51:54.957Z,18.69
2018-01-18T00:52:57.420Z,18.70
2018-01-18T00:53:59.874Z,18.69
2018-01-18T00:55:02.332Z,18.69
2018-01-18T00:56:04.796Z,18.68
2018-01-18T00:57:07.272Z,18.68
2018-01-18T00:58:09.718Z,18.68
2018-01-18T00:59:12.169Z,18.66
2018-01-18T01:00:14.622Z,18.66
2018-01-18T01:01:17.087Z,18.65
2018-01-18T01:02:19.571Z,18.65
2018-01-18T01:03:22.022Z,18.63
2018-01-18T01:04:24.485Z,18.63
2018-01-18T01:05:26.934Z,18.62
2018-01-18T01:06:29.386Z,18.61
2018-01-18T01:07:31.876Z,18.60
2018-01-18T01:08:34.340Z,18.59
2018-01-18T01:09:36.828Z,18.59
2018-01-18T01:10:39.304Z,18.58
2018-01-18T01:11:41.776Z,18.57
2018-01-18T01:12:44.267Z,18.56
2018-01-18T01:13:46.766Z,18.57
2018-01-18T01:14:49.214Z,18.58
2018-01-18T01:15:51.720Z,18.57
2018-01-18T01:16:54.192Z,18.56
2018-01-18T01:17:56.661Z,18.56
2018-01-18T01:18:59.128Z,18.56
2018-01-18T01:20:01.578Z,18.55
2018-01-18T01:21:04.042Z,18.55
2018-01-18T01:22:06.500Z,18.54
2018-01-18T01:23:08.991Z,18.54
2018-01-18T01:24:11.456Z,18.53
2018-01-18T01:25:13.905Z,18.53
2018-01-18T01:26:16.349Z,18.52
2018-01-18T01:27:18.803Z,18.51
2018-01-18T01:28:21.278Z,18.51
2018-01-18T01:29:23.760Z,18.51
2018-01-18T01:30:26.229Z,18.51
2018-01-18T01:31:28.684Z,18.50
2018-01-18T01:32:31.138Z,18.49
2018-01-18T01:33:33.609Z,18.49
2018-01-18T01:34:36.081Z,18.48
2018-01-18T01:35:38.525Z,18.48
2018-01-18T01:36:40.973Z,18.48
2018-01-18T01:37:43.476Z,18.47
2018-01-18T01:38:45.955Z,18.47
2018-01-18T01:39:48.421Z,18.47
2018-01-18T01:40:50.888Z,18.46
2018-01-18T01:41:53.356Z,18.45
2018-01-18T01:42:55.806Z,18.45
2018-01-18T01:43:58.281Z,18.45
2018-01-18T01:45:00.745Z,18.44
2018-01-18T01:46:03.213Z,18.44
2018-01-18T01:47:05.667Z,18.44
2018-01-18T01:48:08.136Z,18.43
2018-01-18T01:49:10.609Z,18.44
2018-01-18T01:50:13.062Z,18.45
2018-01-18T01:51:15.528Z,18.46
2018-01-18T01:52:18.004Z,18.48
2018-01-18T01:53:20.469Z,18.48
2018-01-18T01:54:22.959Z,18.49
2018-01-18T01:55:25.417Z,18.50
2018-01-18T01:56:27.888Z,18.52
2018-01-18T01:57:30.356Z,18.52
2018-01-18T01:58:32.878Z,18.53
2018-01-18T01:59:35.344Z,18.53
2018-01-18T02:00:37.808Z,18.52
2018-01-18T02:01:40.273Z,18.52
2018-01-18T02:02:42.749Z,18.51
2018-01-18T02:03:45.218Z,18.50
2018-01-18T02:04:47.697Z,18.50
2018-01-18T02:05:50.154Z,18.48
2018-01-18T02:06:52.636Z,18.47
2018-01-18T02:07:55.108Z,18.45
2018-01-18T02:08:57.579Z,18.43
2018-01-18T02:10:00.087Z,18.43
2018-01-18T02:11:02.541Z,18.42
2018-01-18T02:12:05.049Z,18.42
2018-01-18T02:13:07.479Z,18.41
2018-01-18T02:14:09.952Z,18.41
2018-01-18T02:15:12.443Z,18.41
2018-01-18T02:16:14.916Z,18.40
2018-01-18T02:17:17.380Z,18.39
2018-01-18T02:18:19.860Z,18.39
2018-01-18T02:19:22.348Z,18.39
2018-01-18T02:20:24.830Z,18.39
2018-01-18T02:21:27.286Z,18.39
2018-01-18T02:22:29.743Z,18.38
2018-01-18T02:23:32.208Z,18.38
2018-01-18T02:24:34.676Z,18.37
2018-01-18T02:25:37.152Z,18.37
2018-01-18T02:26:39.613Z,18.37
2018-01-18T02:27:42.081Z,18.37
2018-01-18T02:28:44.559Z,18.36
2018-01-18T02:29:47.018Z,18.36
2018-01-18T02:30:49.503Z,18.35
2018-01-18T02:31:51.958Z,18.35
2018-01-18T02:32:54.410Z,18.34
2018-01-18T02:33:56.893Z,18.34
2018-01-18T02:34:59.364Z,18.33
2018-01-18T02:36:01.852Z,18.33
2018-01-18T02:37:04.325Z,18.32
2018-01-18T02:38:06.796Z,18.32
2018-01-18T02:39:09.266Z,18.32
2018-01-18T02:40:11.721Z,18.32
2018-01-18T02:41:14.204Z,18.31
2018-01-18T02:42:16.654Z,18.31
2018-01-18T02:43:19.124Z,18.31
2018-01-18T02:44:21.578Z,18.31
2018-01-18T02:45:24.032Z,18.31
2018-01-18T02:46:26.513Z,18.31
2018-01-18T02:47:28.987Z,18.30
2018-01-18T02:48:31.438Z,18.30
2018-01-18T02:49:33.889Z,18.30
2018-01-18T02:50:36.352Z,18.30
2018-01-18T02:51:38.840Z,18.30
2018-01-18T02:52:41.311Z,18.29
2018-01-18T02:53:43.776Z,18.29
2018-01-18T02:54:46.230Z,18.28
2018-01-18T02:55:48.683Z,18.28
2018-01-18T02:56:51.180Z,18.27
2018-01-18T02:57:53.644Z,18.27
2018-01-18T02:58:56.108Z,18.26
2018-01-18T02:59:58.572Z,18.25
2018-01-18T03:01:01.021Z,18.25
2018-01-18T03:02:03.513Z,18.24
2018-01-18T03:03:06.005Z,18.22
2018-01-18T03:04:08.503Z,18.21
2018-01-18T03:05:10.957Z,18.20
2018-01-18T03:06:13.457Z,18.18
2018-01-18T03:07:15.995Z,18.17
2018-01-18T03:08:18.455Z,18.16
2018-01-18T03:09:20.907Z,18.15
2018-01-18T03:10:23.365Z,18.15
2018-01-18T03:11:25.886Z,18.14
2018-01-18T03:12:28.366Z,18.13
2018-01-18T03:13:30.833Z,18.13
2018-01-18T03:14:33.311Z,18.12
2018-01-18T03:15:35.797Z,18.12
2018-01-18T03:16:38.260Z,18.12
2018-01-18T03:17:40.743Z,18.11
2018-01-18T03:18:43.207Z,18.12
2018-01-18T03:19:45.667Z,18.12
2018-01-18T03:20:48.129Z,18.11
2018-01-18T03:21:50.573Z,18.11
2018-01-18T03:22:53.042Z,18.11
2018-01-18T03:23:55.512Z,18.10
2018-01-18T03:24:57.971Z,18.11
2018-01-18T03:26:00.432Z,18.10
2018-01-18T03:27:02.899Z,18.10
2018-01-18T03:28:05.384Z,18.09
2018-01-18T03:29:07.850Z,18.09
2018-01-18T03:30:10.310Z,18.07
2018-01-18T03:31:12.787Z,18.06
2018-01-18T03:32:15.256Z,18.05
2018-01-18T03:33:17.724Z,18.05
2018-01-18T03:34:20.178Z,18.04
2018-01-18T03:35:22.644Z,18.03
2018-01-18T03:36:25.111Z,18.01
2018-01-18T03:37:27.557Z,18.00
2018-01-18T03:38:30.007Z,17.99
2018-01-18T03:39:32.480Z,17.98
2018-01-18T03:40:34.949Z,17.97
2018-01-18T03:41:37.416Z,17.96
2018-01-18T03:42:39.873Z,17.96
2018-01-18T03:43:42.335Z,17.95
2018-01-18T03:44:44.826Z,17.95
2018-01-18T03:45:47.278Z,17.95
2018-01-18T03:46:49.733Z,17.95
2018-01-18T03:47:52.211Z,17.95
2018-01-18T03:48:54.671Z,17.95
2018-01-18T03:49:57.121Z,17.95
2018-01-18T03:50:59.592Z,17.96
2018-01-18T03:52:02.069Z,17.96
2018-01-18T03:53:04.544Z,17.95
2018-01-18T03:54:07.024Z,17.95
2018-01-18T03:55:09.479Z,17.94
2018-01-18T03:56:11.929Z,17.94
2018-01-18T03:57:14.391Z,17.93
2018-01-18T03:58:16.837Z,17.94
2018-01-18T03:59:19.286Z,17.94
2018-01-18T04:00:21.760Z,17.95
2018-01-18T04:01:24.250Z,17.95
2018-01-18T04:02:26.728Z,17.96
2018-01-18T04:03:29.178Z,17.97
2018-01-18T04:04:31.640Z,17.97
2018-01-18T04:05:34.091Z,17.98
2018-01-18T04:06:36.542Z,17.98
2018-01-18T04:07:39.018Z,17.99
2018-01-18T04:08:41.470Z,17.98
2018-01-18T04:09:43.926Z,17.98
2018-01-18T04:10:46.392Z,17.97
2018-01-18T04:11:48.845Z,17.96
2018-01-18T04:12:51.293Z,17.96
2018-01-18T04:13:53.746Z,17.95
2018-01-18T04:14:56.198Z,17.94
2018-01-18T04:15:58.660Z,17.93
2018-01-18T04:17:01.110Z,17.93
2018-01-18T04:18:03.588Z,17.92
2018-01-18T04:19:06.038Z,17.91
2018-01-18T04:20:08.490Z,17.91
2018-01-18T04:21:10.951Z,17.89
2018-01-18T04:22:13.405Z,17.88
2018-01-18T04:23:15.865Z,17.87
2018-01-18T04:24:18.343Z,17.87
2018-01-18T04:25:20.798Z,17.87
2018-01-18T04:26:23.264Z,17.87
2018-01-18T04:27:25.719Z,17.88
2018-01-18T04:28:28.192Z,17.89
2018-01-18T04:29:30.642Z,17.88
2018-01-18T04:30:33.111Z,17.89
2018-01-18T04:31:35.558Z,17.89
2018-01-18T04:32:38.024Z,17.88
2018-01-18T04:33:40.473Z,17.89
2018-01-18T04:34:42.922Z,17.89
2018-01-18T04:35:45.392Z,17.89
2018-01-18T04:36:47.842Z,17.90
2018-01-18T04:37:50.303Z,17.90
2018-01-18T04:38:52.761Z,17.89
2018-01-18T04:39:55.236Z,17.88
2018-01-18T04:40:57.686Z,17.87
2018-01-18T04:42:00.137Z,17.86
2018-01-18T04:43:02.607Z,17.86
2018-01-18T04:44:05.072Z,17.87
2018-01-18T04:45:07.534Z,17.86
2018-01-18T04:46:10.002Z,17.86
2018-01-18T04:47:12.467Z,17.85
2018-01-18T04:48:14.922Z,17.85
2018-01-18T04:49:17.383Z,17.85
2018-01-18T04:50:19.842Z,17.84
2018-01-18T04:51:22.309Z,17.83
2018-01-18T04:52:24.770Z,17.84
2018-01-18T04:53:27.264Z,17.83
2018-01-18T04:54:29.761Z,17.83
2018-01-18T04:55:32.236Z,17.84
2018-01-18T04:56:34.694Z,17.84
2018-01-18T04:57:37.154Z,17.84
2018-01-18T04:58:39.637Z,17.83
2018-01-18T04:59:42.106Z,17.82
2018-01-18T05:00:44.586Z,17.81
2018-01-18T05:01:47.061Z,17.80
2018-01-18T05:02:49.564Z,17.79
2018-01-18T05:03:52.030Z,17.78
2018-01-18T05:04:54.527Z,17.77
2018-01-18T05:05:56.991Z,17.77
2018-01-18T05:06:59.446Z,17.76
2018-01-18T05:08:01.911Z,17.75
2018-01-18T05:09:04.374Z,17.74
2018-01-18T05:10:06.852Z,17.73
2018-01-18T05:11:09.328Z,17.73
2018-01-18T05:12:11.782Z,17.74
2018-01-18T05:13:14.239Z,17.73
2018-01-18T05:14:16.804Z,17.73
2018-01-18T05:15:19.284Z,17.73
2018-01-18T05:16:21.746Z,17.73
2018-01-18T05:17:24.198Z,17.73
2018-01-18T05:18:26.655Z,17.72
2018-01-18T05:19:29.116Z,17.71
2018-01-18T05:20:31.569Z,17.71
2018-01-18T05:21:34.111Z,17.71
2018-01-18T05:22:36.583Z,17.71
2018-01-18T05:23:39.034Z,17.71
2018-01-18T05:24:41.497Z,17.71
2018-01-18T05:25:43.976Z,17.71
2018-01-18T05:26:46.705Z,17.70
2018-01-18T05:27:49.268Z,17.70
2018-01-18T05:28:51.713Z,17.70
2018-01-18T05:29:54.176Z,17.68
2018-01-18T05:30:56.630Z,17.69
2018-01-18T05:31:59.142Z,17.70
2018-01-18T05:33:01.612Z,17.69
2018-01-18T05:34:04.217Z,17.69
2018-01-18T05:35:06.700Z,17.69
2018-01-18T05:36:09.221Z,17.68
2018-01-18T05:37:11.695Z,17.68
2018-01-18T05:38:14.168Z,17.67
2018-01-18T05:39:16.626Z,17.66
2018-01-18T05:40:19.097Z,17.66
2018-01-18T05:41:21.553Z,17.65
2018-01-18T05:42:24.005Z,17.64
2018-01-18T05:43:26.464Z,17.62
2018-01-18T05:44:28.930Z,17.61
2018-01-18T05:45:31.390Z,17.60
2018-01-18T05:46:33.842Z,17.59
2018-01-18T05:47:36.307Z,17.57
2018-01-18T05:48:38.762Z,17.56
2018-01-18T05:49:41.244Z,17.54
2018-01-18T05:50:43.726Z,17.53
2018-01-18T05:51:46.190Z,17.52
2018-01-18T05:52:48.675Z,17.52
2018-01-18T05:53:51.151Z,17.51
2018-01-18T05:54:53.678Z,17.50
2018-01-18T05:55:56.160Z,17.49
2018-01-18T05:56:58.640Z,17.49
2018-01-18T05:58:01.116Z,17.49
2018-01-18T05:59:03.609Z,17.49
2018-01-18T06:00:06.073Z,17.48
2018-01-18T06:01:08.553Z,17.47
2018-01-18T06:02:11.036Z,17.47
2018-01-18T06:03:13.512Z,17.46
2018-01-18T06:04:16.018Z,17.45
2018-01-18T06:05:18.496Z,17.45
2018-01-18T06:06:20.961Z,17.44
2018-01-18T06:07:23.441Z,17.44
2018-01-18T06:08:25.920Z,17.43
2018-01-18T06:09:28.377Z,17.43
2018-01-18T06:10:30.954Z,17.42
2018-01-18T06:11:33.440Z,17.42
2018-01-18T06:12:35.893Z,17.42
2018-01-18T06:13:38.397Z,17.42
2018-01-18T06:14:40.853Z,17.42
2018-01-18T06:15:43.332Z,17.42
2018-01-18T06:16:45.794Z,17.42
2018-01-18T06:17:48.282Z,17.42
2018-01-18T06:18:50.756Z,17.43
2018-01-18T06:19:53.216Z,17.41
2018-01-18T06:20:55.678Z,17.42
2018-01-18T06:21:58.164Z,17.42
2018-01-18T06:23:00.643Z,17.42
2018-01-18T06:24:03.135Z,17.42
2018-01-18T06:25:05.667Z,17.42
2018-01-18T06:26:08.136Z,17.42
2018-01-18T06:27:10.605Z,17.42
2018-01-18T06:28:13.088Z,17.41
2018-01-18T06:29:15.546Z,17.42
2018-01-18T06:30:18.052Z,17.42
2018-01-18T06:31:20.532Z,17.41
2018-01-18T06:32:23.011Z,17.42
2018-01-18T06:33:25.502Z,17.41
2018-01-18T06:34:27.991Z,17.40
2018-01-18T06:35:30.471Z,17.40
2018-01-18T06:36:32.964Z,17.40
2018-01-18T06:37:35.440Z,17.39
2018-01-18T06:38:37.906Z,17.39
2018-01-18T06:39:40.381Z,17.38
2018-01-18T06:40:42.866Z,17.38
2018-01-18T06:41:45.342Z,17.38
2018-01-18T06:42:47.808Z,17.37
2018-01-18T06:43:50.284Z,17.36
2018-01-18T06:44:52.756Z,17.36
2018-01-18T06:45:55.206Z,17.36
2018-01-18T06:46:57.670Z,17.37
2018-01-18T06:48:00.188Z,17.36
2018-01-18T06:49:02.653Z,17.36
2018-01-18T06:50:05.118Z,17.35
2018-01-18T06:51:07.591Z,17.36
2018-01-18T06:52:10.064Z,17.35
2018-01-18T06:53:12.514Z,17.34
2018-01-18T06:54:14.972Z,17.34
2018-01-18T06:55:17.439Z,17.33
2018-01-18T06:56:19.918Z,17.33
2018-01-18T06:57:22.392Z,17.32
2018-01-18T06:58:24.864Z,17.31
2018-01-18T06:59:27.330Z,17.30
2018-01-18T07:00:29.780Z,17.30
2018-01-18T07:01:32.271Z,17.29
2018-01-18T07:02:34.744Z,17.29
2018-01-18T07:03:37.244Z,17.28
2018-01-18T07:04:39.810Z,17.28
2018-01-18T07:05:42.308Z,17.27
2018-01-18T07:06:44.780Z,17.27
2018-01-18T07:07:47.256Z,17.26
2018-01-18T07:08:49.811Z,17.26
2018-01-18T07:09:52.288Z,17.25
2018-01-18T07:10:54.756Z,17.25
2018-01-18T07:11:57.232Z,17.24
2018-01-18T07:12:59.721Z,17.24
2018-01-18T07:14:02.204Z,17.23
2018-01-18T07:15:04.665Z,17.23
2018-01-18T07:16:07.130Z,17.23
2018-01-18T07:17:09.607Z,17.23
2018-01-18T07:18:12.070Z,17.22
2018-01-18T07:19:14.551Z,17.22
2018-01-18T07:20:17.031Z,17.22
2018-01-18T07:21:19.495Z,17.21
2018-01-18T07:22:22.070Z,17.22
2018-01-18T07:23:24.547Z,17.22
2018-01-18T07:24:27.018Z,17.23
2018-01-18T07:25:29.496Z,17.23
2018-01-18T07:26:31.996Z,17.24
2018-01-18T07:27:34.474Z,17.25
2018-01-18T07:28:36.936Z,17.27
2018-01-18T07:29:39.386Z,17.25
2018-01-18T07:30:41.870Z,17.23
2018-01-18T07:31:44.353Z,17.20
2018-01-18T07:32:46.840Z,17.14
2018-01-18T07:33:49.337Z,17.04
2018-01-18T07:34:51.820Z,16.99
2018-01-18T07:35:54.304Z,16.92
2018-01-18T07:36:56.807Z,16.87
2018-01-18T07:37:59.257Z,16.79
2018-01-18T07:39:01.720Z,16.74
2018-01-18T07:40:04.222Z,16.73
2018-01-18T07:41:06.696Z,16.69
2018-01-18T07:42:09.194Z,16.65
2018-01-18T07:43:11.738Z,16.61
2018-01-18T07:44:14.198Z,16.55
2018-01-18T07:45:16.662Z,16.48
2018-01-18T07:46:19.126Z,16.41
2018-01-18T07:47:21.624Z,16.37
2018-01-18T07:48:24.086Z,16.38
2018-01-18T07:49:26.546Z,16.38
2018-01-18T07:50:29.020Z,16.40
2018-01-18T07:51:31.492Z,16.46
2018-01-18T07:52:33.988Z,16.52
2018-01-18T07:53:36.445Z,16.62
2018-01-18T07:54:38.924Z,16.75
2018-01-18T07:55:41.390Z,16.88
2018-01-18T07:56:43.863Z,16.95
2018-01-18T07:57:46.360Z,17.02
2018-01-18T07:58:48.825Z,17.05
2018-01-18T07:59:51.302Z,17.11
2018-01-18T08:00:53.762Z,17.18
2018-01-18T08:01:56.226Z,17.19
2018-01-18T08:03:04.458Z,17.21
2018-01-18T08:04:12.468Z,17.25
2018-01-18T08:05:14.944Z,17.27
2018-01-18T08:06:17.406Z,17.24
2018-01-18T08:07:19.933Z,17.21
2018-01-18T08:08:22.446Z,17.19
2018-01-18T08:09:24.932Z,17.16
2018-01-18T08:10:27.408Z,17.14
2018-01-18T08:11:29.888Z,17.15
2018-01-18T08:12:32.423Z,17.21
2018-01-18T08:13:34.906Z,17.25
2018-01-18T08:14:37.372Z,17.31
2018-01-18T08:15:39.851Z,17.34
2018-01-18T08:16:42.318Z,17.35
2018-01-18T08:17:44.781Z,17.40
2018-01-18T08:18:47.275Z,17.47
2018-01-18T08:19:49.837Z,17.52
2018-01-18T08:20:52.332Z,17.56
2018-01-18T08:21:54.806Z,17.57
2018-01-18T08:22:57.296Z,17.58
2018-01-18T08:23:59.779Z,17.58
2018-01-18T08:25:02.240Z,17.58
2018-01-18T08:26:04.700Z,17.57
2018-01-18T08:27:07.162Z,17.60
2018-01-18T08:28:09.624Z,17.60
2018-01-18T08:29:12.111Z,17.66
2018-01-18T08:30:14.565Z,17.70
2018-01-18T08:31:17.075Z,17.75
2018-01-18T08:32:19.551Z,17.79
2018-01-18T08:33:22.014Z,17.88
2018-01-18T08:34:24.496Z,17.94
2018-01-18T08:35:26.992Z,18.02
2018-01-18T08:36:29.414Z,18.09
2018-01-18T08:37:31.877Z,18.16
2018-01-18T08:38:34.352Z,18.17
2018-01-18T08:39:36.835Z,18.16
2018-01-18T08:40:39.289Z,18.13
2018-01-18T08:41:41.757Z,18.12
2018-01-18T08:42:44.224Z,18.07
2018-01-18T08:43:46.674Z,18.08
2018-01-18T08:44:49.155Z,18.04
2018-01-18T08:45:51.606Z,18.01
2018-01-18T08:46:54.063Z,18.01
2018-01-18T08:47:56.514Z,18.04
2018-01-18T08:48:58.986Z,18.07
2018-01-18T08:50:01.462Z,18.15
2018-01-18T08:51:03.936Z,18.21
2018-01-18T08:52:06.411Z,18.23
2018-01-18T08:53:08.875Z,18.27
2018-01-18T08:54:11.326Z,18.26
2018-01-18T08:55:13.822Z,18.29
2018-01-18T08:56:16.296Z,18.29
2018-01-18T08:57:18.778Z,18.29
2018-01-18T08:58:21.234Z,18.27
2018-01-18T08:59:23.686Z,18.27
2018-01-18T09:00:26.197Z,18.27
2018-01-18T09:01:28.664Z,18.35
2018-01-18T09:02:31.133Z,18.44
2018-01-18T09:03:33.586Z,18.53
2018-01-18T09:04:36.046Z,18.61
2018-01-18T09:05:38.538Z,18.71
2018-01-18T09:06:40.993Z,18.82
2018-01-18T09:07:43.476Z,18.89
2018-01-18T09:08:45.933Z,18.95
2018-01-18T09:09:48.386Z,19.01
2018-01-18T09:10:50.878Z,19.06
2018-01-18T09:11:53.348Z,19.11
2018-01-18T09:12:55.830Z,19.16
2018-01-18T09:13:58.286Z,19.22
2018-01-18T09:15:01.120Z,19.25
2018-01-18T09:16:03.621Z,19.26
2018-01-18T09:17:06.092Z,19.30
2018-01-18T09:18:08.546Z,19.39
2018-01-18T09:19:11.010Z,19.44
2018-01-18T09:20:13.476Z,19.55
2018-01-18T09:21:15.962Z,19.66
2018-01-18T09:22:18.418Z,19.77
2018-01-18T09:23:20.873Z,19.92
2018-01-18T09:24:23.325Z,20.02
2018-01-18T09:25:25.778Z,20.15
2018-01-18T09:26:28.250Z,20.19
2018-01-18T09:27:30.712Z,20.26
2018-01-18T09:28:33.167Z,20.29
2018-01-18T09:29:35.622Z,20.32
2018-01-18T09:30:38.081Z,20.34
2018-01-18T09:31:40.562Z,20.33
2018-01-18T09:32:43.014Z,20.33
2018-01-18T09:33:45.480Z,20.34
2018-01-18T09:34:47.938Z,20.34
2018-01-18T09:35:50.403Z,20.36
2018-01-18T09:36:52.883Z,20.38
2018-01-18T09:37:55.338Z,20.39
2018-01-18T09:38:57.809Z,20.45
2018-01-18T09:40:00.284Z,20.49
2018-01-18T09:41:02.738Z,20.50
2018-01-18T09:42:05.248Z,20.58
2018-01-18T09:43:07.702Z,20.61
2018-01-18T09:44:10.183Z,20.64
2018-01-18T09:45:12.708Z,20.66
2018-01-18T09:46:15.168Z,20.73
2018-01-18T09:47:17.655Z,20.75
2018-01-18T09:48:20.214Z,20.79
2018-01-18T09:49:22.666Z,20.79
2018-01-18T09:50:25.195Z,20.81
2018-01-18T09:51:27.680Z,20.80
2018-01-18T09:52:30.166Z,20.79
2018-01-18T09:53:32.640Z,20.78
2018-01-18T09:54:35.330Z,20.77
2018-01-18T09:55:37.812Z,20.78
2018-01-18T09:56:40.347Z,20.79
2018-01-18T09:57:42.830Z,20.81
2018-01-18T09:58:46.042Z,20.83
2018-01-18T09:59:48.644Z,20.87
2018-01-18T10:00:51.110Z,20.90
2018-01-18T10:01:53.576Z,20.95
2018-01-18T10:02:56.054Z,20.98
2018-01-18T10:03:58.515Z,21.04
2018-01-18T10:05:00.984Z,21.01
2018-01-18T10:06:03.548Z,21.03
2018-01-18T10:07:06.006Z,21.04
2018-01-18T10:08:08.486Z,21.05
2018-01-18T10:09:10.970Z,21.06
2018-01-18T10:10:13.431Z,21.05
2018-01-18T10:11:15.889Z,21.05
2018-01-18T10:12:18.342Z,21.02
2018-01-18T10:13:20.827Z,20.97
2018-01-18T10:14:23.285Z,20.96
2018-01-18T10:15:25.763Z,20.95
2018-01-18T10:16:28.217Z,20.97
2018-01-18T10:17:30.690Z,21.01
2018-01-18T10:18:33.165Z,21.03
2018-01-18T10:19:35.636Z,21.04
2018-01-18T10:20:38.107Z,21.07
2018-01-18T10:21:40.562Z,21.11
2018-01-18T10:22:43.036Z,21.11
2018-01-18T10:23:45.517Z,21.13
2018-01-18T10:24:47.990Z,21.13
2018-01-18T10:25:50.470Z,21.14
2018-01-18T10:26:52.939Z,21.09
2018-01-18T10:27:55.393Z,21.01
2018-01-18T10:28:57.878Z,20.92
2018-01-18T10:30:00.342Z,20.82
2018-01-18T10:31:02.797Z,20.73
2018-01-18T10:32:05.268Z,20.68
2018-01-18T10:33:07.726Z,20.67
2018-01-18T10:34:10.206Z,20.69
2018-01-18T10:35:12.666Z,20.71
2018-01-18T10:36:15.144Z,20.72
2018-01-18T10:37:17.602Z,20.75
2018-01-18T10:38:20.074Z,20.75
2018-01-18T10:39:22.582Z,20.76
2018-01-18T10:40:25.043Z,20.76
2018-01-18T10:41:27.511Z,20.74
2018-01-18T10:42:29.982Z,20.76
2018-01-18T10:43:32.447Z,20.72
2018-01-18T10:44:34.945Z,20.71
2018-01-18T10:45:37.440Z,20.67
2018-01-18T10:46:39.915Z,20.65
2018-01-18T10:47:42.389Z,20.63
2018-01-18T10:48:44.862Z,20.64
2018-01-18T10:49:47.495Z,20.64
2018-01-18T10:50:49.980Z,20.67
2018-01-18T10:51:52.433Z,20.71
2018-01-18T10:52:54.908Z,20.76
2018-01-18T10:53:57.396Z,20.77
2018-01-18T10:54:59.888Z,20.78
2018-01-18T10:56:02.368Z,20.78
2018-01-18T10:57:04.829Z,20.76
2018-01-18T10:58:07.282Z,20.74
2018-01-18T10:59:09.737Z,20.74
2018-01-18T11:00:12.254Z,20.72
2018-01-18T11:01:14.702Z,20.69
2018-01-18T11:02:17.158Z,20.65
2018-01-18T11:03:19.628Z,20.63
2018-01-18T11:04:22.082Z,20.61
2018-01-18T11:05:24.576Z,20.63
2018-01-18T11:06:27.169Z,20.64
2018-01-18T11:07:29.538Z,20.67
2018-01-18T11:08:32.014Z,20.72
2018-01-18T11:09:34.507Z,20.73
2018-01-18T11:10:36.986Z,20.76
2018-01-18T11:11:39.452Z,20.79
2018-01-18T11:12:41.906Z,20.79
2018-01-18T11:13:44.358Z,20.80
2018-01-18T11:14:46.837Z,20.78
2018-01-18T11:15:49.332Z,20.76
2018-01-18T11:16:51.789Z,20.75
2018-01-18T11:17:54.260Z,20.73
2018-01-18T11:18:56.736Z,20.72
2018-01-18T11:19:59.203Z,20.68
2018-01-18T11:21:01.682Z,20.67
2018-01-18T11:22:04.141Z,20.69
2018-01-18T11:23:06.594Z,20.71
2018-01-18T11:24:09.053Z,20.74
2018-01-18T11:25:11.528Z,20.75
2018-01-18T11:26:14.001Z,20.78
2018-01-18T11:27:16.453Z,20.80
2018-01-18T11:28:19.046Z,20.84
2018-01-18T11:29:22.811Z,20.82
2018-01-18T11:30:25.276Z,20.79
2018-01-18T11:31:27.763Z,20.76
2018-01-18T11:32:30.213Z,20.73
2018-01-18T11:33:32.666Z,20.70
2018-01-18T11:34:35.136Z,20.65
2018-01-18T11:35:37.618Z,20.64
2018-01-18T11:36:40.090Z,20.63
2018-01-18T11:37:42.560Z,20.60
2018-01-18T11:38:45.011Z,20.60
2018-01-18T11:39:47.481Z,20.58
2018-01-18T11:40:49.948Z,20.57
2018-01-18T11:41:52.443Z,20.57
2018-01-18T11:42:54.898Z,20.59
2018-01-18T11:43:57.354Z,20.59
2018-01-18T11:44:59.816Z,20.58
2018-01-18T11:46:02.288Z,20.56
2018-01-18T11:47:04.762Z,20.57
2018-01-18T11:48:07.218Z,20.57
2018-01-18T11:49:09.688Z,20.57
2018-01-18T11:50:12.138Z,20.57
2018-01-18T11:51:14.594Z,20.55
2018-01-18T11:52:17.074Z,20.52
2018-01-18T11:53:19.529Z,20.50
2018-01-18T11:54:22.060Z,20.49
2018-01-18T11:55:24.519Z,20.50
2018-01-18T11:56:26.988Z,20.49
2018-01-18T11:57:29.476Z,20.49
2018-01-18T11:58:31.945Z,20.49
2018-01-18T11:59:34.416Z,20.49
2018-01-18T12:00:36.900Z,20.50
2018-01-18T12:01:39.372Z,20.50
2018-01-18T12:02:41.853Z,20.50
2018-01-18T12:03:44.316Z,20.47
2018-01-18T12:04:46.782Z,20.44
2018-01-18T12:05:49.263Z,20.40
2018-01-18T12:06:51.736Z,20.36
2018-01-18T12:07:54.234Z,20.32
2018-01-18T12:08:56.740Z,20.29
2018-01-18T12:09:59.219Z,20.26
2018-01-18T12:11:01.677Z,20.23
2018-01-18T12:12:04.172Z,20.19
2018-01-18T12:13:06.650Z,20.16
2018-01-18T12:14:09.140Z,20.14
2018-01-18T12:15:11.602Z,20.14
2018-01-18T12:16:14.059Z,20.17
2018-01-18T12:17:16.540Z,20.16
2018-01-18T12:18:19.034Z,20.18
2018-01-18T12:19:21.492Z,20.21
2018-01-18T12:20:23.967Z,20.24
2018-01-18T12:21:26.422Z,20.25
2018-01-18T12:22:28.874Z,20.27
2018-01-18T12:23:31.368Z,20.28
2018-01-18T12:24:33.826Z,20.29
2018-01-18T12:25:36.296Z,20.27
2018-01-18T12:26:38.758Z,20.30
2018-01-18T12:27:41.248Z,20.29
2018-01-18T12:28:43.740Z,20.30
2018-01-18T12:29:46.194Z,20.33
2018-01-18T12:30:48.674Z,20.35
2018-01-18T12:31:51.151Z,20.35
2018-01-18T12:32:53.632Z,20.36
2018-01-18T12:33:56.110Z,20.39
2018-01-18T12:34:58.588Z,20.45
2018-01-18T12:36:01.059Z,20.44
2018-01-18T12:37:03.614Z,20.46
2018-01-18T12:38:06.095Z,20.50
2018-01-18T12:39:08.574Z,20.52
2018-01-18T12:40:11.076Z,20.53
2018-01-18T12:41:13.576Z,20.55
2018-01-18T12:42:16.093Z,20.56
2018-01-18T12:43:18.554Z,20.56
2018-01-18T12:44:21.045Z,20.56
2018-01-18T12:45:23.502Z,20.54
2018-01-18T12:46:25.962Z,20.55
2018-01-18T12:47:28.428Z,20.53
2018-01-18T12:48:30.900Z,20.52
2018-01-18T12:49:33.392Z,20.50
2018-01-18T12:50:35.850Z,20.49
2018-01-18T12:51:38.323Z,20.48
2018-01-18T12:52:40.778Z,20.48
2018-01-18T12:53:43.276Z,20.49
2018-01-18T12:54:45.763Z,20.50
2018-01-18T12:55:48.227Z,20.53
2018-01-18T12:56:50.683Z,20.56
2018-01-18T12:57:53.147Z,20.57
2018-01-18T12:58:55.603Z,20.60
2018-01-18T12:59:58.101Z,20.59
2018-01-18T13:01:00.572Z,20.63
2018-01-18T13:02:03.049Z,20.61
2018-01-18T13:03:05.514Z,20.63
2018-01-18T13:04:07.970Z,20.62
2018-01-18T13:05:10.455Z,20.61
2018-01-18T13:06:12.910Z,20.59
2018-01-18T13:07:15.384Z,20.58
2018-01-18T13:08:17.861Z,20.57
2018-01-18T13:09:20.350Z,20.58
2018-01-18T13:10:22.842Z,20.57
2018-01-18T13:11:25.317Z,20.59
2018-01-18T13:12:27.778Z,20.59
2018-01-18T13:13:30.239Z,20.64
2018-01-18T13:14:32.698Z,20.65
2018-01-18T13:15:35.338Z,20.65
2018-01-18T13:16:37.816Z,20.69
2018-01-18T13:17:40.274Z,20.69
2018-01-18T13:18:42.735Z,20.71
2018-01-18T13:19:45.208Z,20.71
2018-01-18T13:20:47.682Z,20.69
2018-01-18T13:21:50.140Z,20.67
2018-01-18T13:22:52.606Z,20.64
2018-01-18T13:23:55.076Z,20.63
2018-01-18T13:24:57.534Z,20.62